General Lavalle, Argentina
Current Conditions -  °F | °C
As of 12:00 PM on Monday 24 Nov 2014 (Local Time) from SAZM Reporting Station
Broken Clouds Broken Clouds  
Wind Chill: 72°   Ceiling: 20000
Heat Index: 72°   Visibility: 6mi
Dew Point: 63°   Wind: 16mph
Humidity: 73%   Direction: 320°NW
Pressure: 29.68"   Gusts: NA
Location:  36.4°S, 56.97°W
Report Text: SAZM 241500Z 32014KT 9999 FEW020 BKN20022/17 Q1005
Loading
Personal Weather Stations






























Interactive Weather Map New forecast layout! Learn more

10-Day Weather Forecast

Advertisements
Track Severe Weather on mobile